sensor_id;sensor_type;location;lat;lon;timestamp;temperature;humidity
40253;DHT22;25972;51.854;4.534;2022-09-12T00:01:36;16.20;99.90
40253;DHT22;25972;51.854;4.534;2022-09-12T00:04:02;16.20;99.90
40253;DHT22;25972;51.854;4.534;2022-09-12T00:06:34;16.20;99.90
40253;DHT22;25972;51.854;4.534;2022-09-12T00:09:03;16.10;99.90
40253;DHT22;25972;51.854;4.534;2022-09-12T00:11:29;16.10;99.90
40253;DHT22;25972;51.854;4.534;2022-09-12T00:13:57;16.10;99.90
40253;DHT22;25972;51.854;4.534;2022-09-12T00:16:25;16.10;99.90
40253;DHT22;25972;51.854;4.534;2022-09-12T00:18:52;16.00;99.90
40253;DHT22;25972;51.854;4.534;2022-09-12T00:21:18;16.00;99.90
40253;DHT22;25972;51.854;4.534;2022-09-12T00:23:45;16.00;99.90
40253;DHT22;25972;51.854;4.534;2022-09-12T00:26:12;16.00;99.90
40253;DHT22;25972;51.854;4.534;2022-09-12T00:28:39;16.00;99.90
40253;DHT22;25972;51.854;4.534;2022-09-12T00:31:11;16.00;99.90
40253;DHT22;25972;51.854;4.534;2022-09-12T00:33:37;16.00;99.90
40253;DHT22;25972;51.854;4.534;2022-09-12T00:36:09;15.90;99.90
40253;DHT22;25972;51.854;4.534;2022-09-12T00:38:35;15.90;99.90
40253;DHT22;25972;51.854;4.534;2022-09-12T00:41:07;15.90;99.90
40253;DHT22;25972;51.854;4.534;2022-09-12T00:43:37;15.90;99.90
40253;DHT22;25972;51.854;4.534;2022-09-12T00:46:15;15.90;99.90
40253;DHT22;25972;51.854;4.534;2022-09-12T00:48:45;15.80;99.90
40253;DHT22;25972;51.854;4.534;2022-09-12T00:51:12;15.80;99.90
40253;DHT22;25972;51.854;4.534;2022-09-12T00:53:40;15.80;99.90
40253;DHT22;25972;51.854;4.534;2022-09-12T00:56:08;15.80;99.90
40253;DHT22;25972;51.854;4.534;2022-09-12T00:58:46;15.80;99.90
40253;DHT22;25972;51.854;4.534;2022-09-12T01:01:13;15.80;99.90
40253;DHT22;25972;51.854;4.534;2022-09-12T01:03:39;15.80;99.90
40253;DHT22;25972;51.854;4.534;2022-09-12T01:06:17;15.80;99.90
40253;DHT22;25972;51.854;4.534;2022-09-12T01:08:46;15.70;99.90
40253;DHT22;25972;51.854;4.534;2022-09-12T01:11:12;15.70;99.90
40253;DHT22;25972;51.854;4.534;2022-09-12T01:13:39;15.70;99.90
40253;DHT22;25972;51.854;4.534;2022-09-12T01:16:06;15.70;99.90
40253;DHT22;25972;51.854;4.534;2022-09-12T01:38:09;15.60;99.90
40253;DHT22;25972;51.854;4.534;2022-09-12T01:41:05;15.60;99.90
40253;DHT22;25972;51.854;4.534;2022-09-12T01:44:00;15.60;99.90
40253;DHT22;25972;51.854;4.534;2022-09-12T01:46:47;15.60;99.90
40253;DHT22;25972;51.854;4.534;2022-09-12T01:49:49;15.60;99.90
40253;DHT22;25972;51.854;4.534;2022-09-12T01:55:12;15.50;99.90
40253;DHT22;25972;51.854;4.534;2022-09-12T01:57:53;15.50;99.90
40253;DHT22;25972;51.854;4.534;2022-09-12T02:00:19;15.50;99.90
40253;DHT22;25972;51.854;4.534;2022-09-12T02:02:59;15.50;99.90
40253;DHT22;25972;51.854;4.534;2022-09-12T02:05:33;15.40;99.90
40253;DHT22;25972;51.854;4.534;2022-09-12T02:10:55;15.40;99.90
40253;DHT22;25972;51.854;4.534;2022-09-12T02:13:40;15.40;99.90
40253;DHT22;25972;51.854;4.534;2022-09-12T02:16:18;15.40;99.90
40253;DHT22;25972;51.854;4.534;2022-09-12T02:18:51;15.40;99.90
40253;DHT22;25972;51.854;4.534;2022-09-12T02:21:18;15.40;99.90
40253;DHT22;25972;51.854;4.534;2022-09-12T02:23:49;15.40;99.90
40253;DHT22;25972;51.854;4.534;2022-09-12T02:26:24;15.40;99.90
40253;DHT22;25972;51.854;4.534;2022-09-12T02:28:53;15.40;99.90
40253;DHT22;25972;51.854;4.534;2022-09-12T02:40:07;15.40;99.90
40253;DHT22;25972;51.854;4.534;2022-09-12T02:42:35;15.50;99.90
40253;DHT22;25972;51.854;4.534;2022-09-12T02:45:02;15.50;99.90
40253;DHT22;25972;51.854;4.534;2022-09-12T02:47:48;15.50;99.90
40253;DHT22;25972;51.854;4.534;2022-09-12T02:50:15;15.50;99.90
40253;DHT22;25972;51.854;4.534;2022-09-12T02:52:42;15.50;99.90
40253;DHT22;25972;51.854;4.534;2022-09-12T02:55:09;15.50;99.90
40253;DHT22;25972;51.854;4.534;2022-09-12T02:57:38;15.50;99.90
40253;DHT22;25972;51.854;4.534;2022-09-12T03:00:05;15.50;99.90
40253;DHT22;25972;51.854;4.534;2022-09-12T03:02:55;15.50;99.90
40253;DHT22;25972;51.854;4.534;2022-09-12T03:05:31;15.50;99.90
40253;DHT22;25972;51.854;4.534;2022-09-12T03:11:31;15.50;99.90
40253;DHT22;25972;51.854;4.534;2022-09-12T03:22:22;15.60;99.90
40253;DHT22;25972;51.854;4.534;2022-09-12T03:25:13;15.60;99.90
40253;DHT22;25972;51.854;4.534;2022-09-12T03:28:00;15.60;99.90
40253;DHT22;25972;51.854;4.534;2022-09-12T03:30:31;15.60;99.90
40253;DHT22;25972;51.854;4.534;2022-09-12T03:33:01;15.60;99.90
40253;DHT22;25972;51.854;4.534;2022-09-12T03:35:27;15.60;99.90
40253;DHT22;25972;51.854;4.534;2022-09-12T03:37:52;15.60;99.90
40253;DHT22;25972;51.854;4.534;2022-09-12T03:40:18;15.60;99.90
40253;DHT22;25972;51.854;4.534;2022-09-12T03:42:44;15.50;99.90
40253;DHT22;25972;51.854;4.534;2022-09-12T03:45:10;15.50;99.90
40253;DHT22;25972;51.854;4.534;2022-09-12T03:47:36;15.60;99.90
40253;DHT22;25972;51.854;4.534;2022-09-12T03:50:03;15.50;99.90
40253;DHT22;25972;51.854;4.534;2022-09-12T03:52:29;15.50;99.90
40253;DHT22;25972;51.854;4.534;2022-09-12T03:54:54;15.50;99.90
40253;DHT22;25972;51.854;4.534;2022-09-12T03:57:20;15.50;99.90
40253;DHT22;25972;51.854;4.534;2022-09-12T03:59:47;15.50;99.90
40253;DHT22;25972;51.854;4.534;2022-09-12T04:02:14;15.50;99.90
40253;DHT22;25972;51.854;4.534;2022-09-12T04:04:40;15.50;99.90
40253;DHT22;25972;51.854;4.534;2022-09-12T04:07:12;15.50;99.90
40253;DHT22;25972;51.854;4.534;2022-09-12T04:09:37;15.40;99.90
40253;DHT22;25972;51.854;4.534;2022-09-12T04:12:03;15.40;99.90
40253;DHT22;25972;51.854;4.534;2022-09-12T04:14:29;15.40;99.90
40253;DHT22;25972;51.854;4.534;2022-09-12T04:16:55;15.40;99.90
40253;DHT22;25972;51.854;4.534;2022-09-12T04:19:21;15.40;99.90
40253;DHT22;25972;51.854;4.534;2022-09-12T04:21:48;15.40;99.90
40253;DHT22;25972;51.854;4.534;2022-09-12T04:24:13;15.40;99.90
40253;DHT22;25972;51.854;4.534;2022-09-12T04:26:39;15.40;99.90
40253;DHT22;25972;51.854;4.534;2022-09-12T04:29:05;15.30;99.90
40253;DHT22;25972;51.854;4.534;2022-09-12T04:31:31;15.30;99.90
40253;DHT22;25972;51.854;4.534;2022-09-12T04:33:58;15.30;99.90
40253;DHT22;25972;51.854;4.534;2022-09-12T04:36:25;15.30;99.90
40253;DHT22;25972;51.854;4.534;2022-09-12T04:38:52;15.30;99.90
40253;DHT22;25972;51.854;4.534;2022-09-12T04:41:27;15.30;99.90
40253;DHT22;25972;51.854;4.534;2022-09-12T04:43:55;15.30;99.90
40253;DHT22;25972;51.854;4.534;2022-09-12T04:46:27;15.30;99.90
40253;DHT22;25972;51.854;4.534;2022-09-12T04:48:54;15.20;99.90
40253;DHT22;25972;51.854;4.534;2022-09-12T04:51:22;15.30;99.90
40253;DHT22;25972;51.854;4.534;2022-09-12T04:53:54;15.20;99.90
40253;DHT22;25972;51.854;4.534;2022-09-12T04:56:20;15.20;99.90
40253;DHT22;25972;51.854;4.534;2022-09-12T04:58:46;15.20;99.90
40253;DHT22;25972;51.854;4.534;2022-09-12T05:01:18;15.20;99.90
40253;DHT22;25972;51.854;4.534;2022-09-12T05:03:45;15.10;99.90
40253;DHT22;25972;51.854;4.534;2022-09-12T05:06:17;15.20;99.90
40253;DHT22;25972;51.854;4.534;2022-09-12T05:08:44;15.20;99.90
40253;DHT22;25972;51.854;4.534;2022-09-12T05:11:12;15.10;99.90
40253;DHT22;25972;51.854;4.534;2022-09-12T05:13:38;15.10;99.90
40253;DHT22;25972;51.854;4.534;2022-09-12T05:16:06;15.00;99.90
40253;DHT22;25972;51.854;4.534;2022-09-12T05:18:34;15.10;99.90
40253;DHT22;25972;51.854;4.534;2022-09-12T05:21:01;15.10;99.90
40253;DHT22;25972;51.854;4.534;2022-09-12T05:23:29;15.00;99.90
40253;DHT22;25972;51.854;4.534;2022-09-12T05:25:56;15.00;99.90
40253;DHT22;25972;51.854;4.534;2022-09-12T05:28:24;15.10;99.90
40253;DHT22;25972;51.854;4.534;2022-09-12T05:31:04;15.00;99.90
40253;DHT22;25972;51.854;4.534;2022-09-12T05:33:31;15.00;99.90
40253;DHT22;25972;51.854;4.534;2022-09-12T05:35:57;14.90;99.90
40253;DHT22;25972;51.854;4.534;2022-09-12T05:38:24;15.00;99.90
40253;DHT22;25972;51.854;4.534;2022-09-12T05:40:50;15.00;99.90
40253;DHT22;25972;51.854;4.534;2022-09-12T05:43:16;14.90;99.90
40253;DHT22;25972;51.854;4.534;2022-09-12T05:45:42;15.00;99.90
40253;DHT22;25972;51.854;4.534;2022-09-12T05:48:08;15.00;99.90
40253;DHT22;25972;51.854;4.534;2022-09-12T05:50:34;15.00;99.90
40253;DHT22;25972;51.854;4.534;2022-09-12T05:53:00;15.00;99.90
40253;DHT22;25972;51.854;4.534;2022-09-12T05:55:26;15.00;99.90
40253;DHT22;25972;51.854;4.534;2022-09-12T05:57:51;15.00;99.90
40253;DHT22;25972;51.854;4.534;2022-09-12T06:00:18;15.00;99.90
40253;DHT22;25972;51.854;4.534;2022-09-12T06:02:51;15.00;99.90
40253;DHT22;25972;51.854;4.534;2022-09-12T06:05:18;15.00;99.90
40253;DHT22;25972;51.854;4.534;2022-09-12T06:07:46;15.10;99.90
40253;DHT22;25972;51.854;4.534;2022-09-12T06:10:12;15.10;99.90
40253;DHT22;25972;51.854;4.534;2022-09-12T06:12:38;15.10;99.90
40253;DHT22;25972;51.854;4.534;2022-09-12T06:15:04;15.20;99.90
40253;DHT22;25972;51.854;4.534;2022-09-12T06:17:30;15.20;99.90
40253;DHT22;25972;51.854;4.534;2022-09-12T06:19:56;15.30;99.90
40253;DHT22;25972;51.854;4.534;2022-09-12T06:22:22;15.30;99.90
40253;DHT22;25972;51.854;4.534;2022-09-12T06:24:48;15.40;99.90
40253;DHT22;25972;51.854;4.534;2022-09-12T06:27:14;15.40;99.90
40253;DHT22;25972;51.854;4.534;2022-09-12T06:29:39;15.50;99.90
40253;DHT22;25972;51.854;4.534;2022-09-12T06:32:05;15.60;99.90
40253;DHT22;25972;51.854;4.534;2022-09-12T06:34:31;15.60;99.90
40253;DHT22;25972;51.854;4.534;2022-09-12T06:36:58;15.80;99.90
40253;DHT22;25972;51.854;4.534;2022-09-12T06:39:24;15.90;99.90
40253;DHT22;25972;51.854;4.534;2022-09-12T06:41:51;16.10;99.90
40253;DHT22;25972;51.854;4.534;2022-09-12T06:44:19;16.20;99.90
40253;DHT22;25972;51.854;4.534;2022-09-12T06:46:45;16.40;99.90
40253;DHT22;25972;51.854;4.534;2022-09-12T06:49:11;16.60;99.90
40253;DHT22;25972;51.854;4.534;2022-09-12T06:51:37;16.70;99.90
40253;DHT22;25972;51.854;4.534;2022-09-12T06:54:03;16.90;99.90
40253;DHT22;25972;51.854;4.534;2022-09-12T06:56:30;17.00;99.90
40253;DHT22;25972;51.854;4.534;2022-09-12T06:58:56;17.20;99.90
40253;DHT22;25972;51.854;4.534;2022-09-12T07:01:26;17.30;99.90
40253;DHT22;25972;51.854;4.534;2022-09-12T07:03:55;17.50;99.90
40253;DHT22;25972;51.854;4.534;2022-09-12T07:06:24;17.50;99.90
40253;DHT22;25972;51.854;4.534;2022-09-12T07:08:55;17.70;99.90
40253;DHT22;25972;51.854;4.534;2022-09-12T07:11:24;17.90;99.90
40253;DHT22;25972;51.854;4.534;2022-09-12T07:13:52;18.10;99.90
40253;DHT22;25972;51.854;4.534;2022-09-12T07:16:18;18.10;99.90
40253;DHT22;25972;51.854;4.534;2022-09-12T07:18:48;18.20;99.90
40253;DHT22;25972;51.854;4.534;2022-09-12T07:21:14;18.40;99.90
40253;DHT22;25972;51.854;4.534;2022-09-12T07:23:40;18.50;99.90
40253;DHT22;25972;51.854;4.534;2022-09-12T07:26:08;18.70;99.90
40253;DHT22;25972;51.854;4.534;2022-09-12T07:28:35;18.70;99.90
40253;DHT22;25972;51.854;4.534;2022-09-12T07:31:14;18.90;99.90
40253;DHT22;25972;51.854;4.534;2022-09-12T07:33:41;19.00;99.90
40253;DHT22;25972;51.854;4.534;2022-09-12T07:36:12;19.10;99.90
40253;DHT22;25972;51.854;4.534;2022-09-12T07:38:38;19.20;99.90
40253;DHT22;25972;51.854;4.534;2022-09-12T07:43:36;19.50;99.90
40253;DHT22;25972;51.854;4.534;2022-09-12T07:46:02;19.60;99.90
40253;DHT22;25972;51.854;4.534;2022-09-12T07:48:28;19.70;99.90
40253;DHT22;25972;51.854;4.534;2022-09-12T07:50:58;19.90;99.90
40253;DHT22;25972;51.854;4.534;2022-09-12T07:53:26;20.10;99.90
40253;DHT22;25972;51.854;4.534;2022-09-12T07:55:55;20.30;99.90
40253;DHT22;25972;51.854;4.534;2022-09-12T07:58:22;20.40;99.90
40253;DHT22;25972;51.854;4.534;2022-09-12T08:00:48;20.60;99.90
40253;DHT22;25972;51.854;4.534;2022-09-12T08:03:15;20.80;99.90
40253;DHT22;25972;51.854;4.534;2022-09-12T08:05:41;20.90;99.90
40253;DHT22;25972;51.854;4.534;2022-09-12T08:08:08;21.00;99.90
40253;DHT22;25972;51.854;4.534;2022-09-12T08:10:34;21.20;99.90
40253;DHT22;25972;51.854;4.534;2022-09-12T08:13:00;21.30;99.90
40253;DHT22;25972;51.854;4.534;2022-09-12T08:15:28;21.40;99.90
40253;DHT22;25972;51.854;4.534;2022-09-12T08:17:55;21.60;99.90
40253;DHT22;25972;51.854;4.534;2022-09-12T08:20:21;21.70;99.90
40253;DHT22;25972;51.854;4.534;2022-09-12T08:22:47;21.80;99.90
40253;DHT22;25972;51.854;4.534;2022-09-12T08:25:13;22.00;99.90
40253;DHT22;25972;51.854;4.534;2022-09-12T08:27:41;22.20;99.90
40253;DHT22;25972;51.854;4.534;2022-09-12T08:30:07;22.20;99.90
40253;DHT22;25972;51.854;4.534;2022-09-12T08:32:34;22.10;99.90
40253;DHT22;25972;51.854;4.534;2022-09-12T08:35:00;22.20;99.90
40253;DHT22;25972;51.854;4.534;2022-09-12T08:37:30;22.30;99.90
40253;DHT22;25972;51.854;4.534;2022-09-12T08:39:56;22.40;99.90
40253;DHT22;25972;51.854;4.534;2022-09-12T08:42:53;22.60;99.90
40253;DHT22;25972;51.854;4.534;2022-09-12T08:45:35;22.70;99.90
40253;DHT22;25972;51.854;4.534;2022-09-12T08:48:03;22.90;99.90
40253;DHT22;25972;51.854;4.534;2022-09-12T08:50:30;22.70;99.90
40253;DHT22;25972;51.854;4.534;2022-09-12T08:53:19;22.80;99.90
40253;DHT22;25972;51.854;4.534;2022-09-12T08:55:55;22.80;99.90
40253;DHT22;25972;51.854;4.534;2022-09-12T08:58:25;22.80;99.90
40253;DHT22;25972;51.854;4.534;2022-09-12T09:09:05;22.80;99.90
40253;DHT22;25972;51.854;4.534;2022-09-12T09:17:09;22.70;99.90
40253;DHT22;25972;51.854;4.534;2022-09-12T09:19:37;23.00;99.90
40253;DHT22;25972;51.854;4.534;2022-09-12T09:22:11;22.90;99.90
40253;DHT22;25972;51.854;4.534;2022-09-12T09:24:43;22.90;99.90
40253;DHT22;25972;51.854;4.534;2022-09-12T09:27:12;23.20;99.90
40253;DHT22;25972;51.854;4.534;2022-09-12T09:29:47;23.60;99.90
40253;DHT22;25972;51.854;4.534;2022-09-12T09:32:33;23.50;99.90
40253;DHT22;25972;51.854;4.534;2022-09-12T09:40:36;23.90;99.90
40253;DHT22;25972;51.854;4.534;2022-09-12T09:43:20;24.00;99.90
40253;DHT22;25972;51.854;4.534;2022-09-12T09:45:48;23.80;99.90
40253;DHT22;25972;51.854;4.534;2022-09-12T09:48:27;23.90;99.90
40253;DHT22;25972;51.854;4.534;2022-09-12T09:50:57;24.30;99.90
40253;DHT22;25972;51.854;4.534;2022-09-12T09:53:47;24.50;99.90
40253;DHT22;25972;51.854;4.534;2022-09-12T09:58:54;24.50;99.90
40253;DHT22;25972;51.854;4.534;2022-09-12T10:01:19;24.50;99.90
40253;DHT22;25972;51.854;4.534;2022-09-12T10:03:50;24.50;99.90
40253;DHT22;25972;51.854;4.534;2022-09-12T10:08:45;24.50;99.90
40253;DHT22;25972;51.854;4.534;2022-09-12T10:16:47;24.70;99.90
40253;DHT22;25972;51.854;4.534;2022-09-12T10:19:22;24.40;99.80
40253;DHT22;25972;51.854;4.534;2022-09-12T10:21:53;24.20;99.60
40253;DHT22;25972;51.854;4.534;2022-09-12T10:27:14;23.90;99.90
40253;DHT22;25972;51.854;4.534;2022-09-12T10:29:45;24.10;99.90
40253;DHT22;25972;51.854;4.534;2022-09-12T10:32:26;23.80;99.90
40253;DHT22;25972;51.854;4.534;2022-09-12T10:34:57;23.80;99.90
40253;DHT22;25972;51.854;4.534;2022-09-12T10:37:32;23.80;99.90
40253;DHT22;25972;51.854;4.534;2022-09-12T10:39:59;23.80;99.90
40253;DHT22;25972;51.854;4.534;2022-09-12T10:42:46;23.80;99.90
40253;DHT22;25972;51.854;4.534;2022-09-12T10:45:24;23.70;99.90
40253;DHT22;25972;51.854;4.534;2022-09-12T10:47:52;23.70;99.90
40253;DHT22;25972;51.854;4.534;2022-09-12T10:52:52;23.90;99.90
40253;DHT22;25972;51.854;4.534;2022-09-12T10:55:21;23.70;99.90
40253;DHT22;25972;51.854;4.534;2022-09-12T11:00:20;23.30;99.90
40253;DHT22;25972;51.854;4.534;2022-09-12T11:03:14;23.40;99.90
40253;DHT22;25972;51.854;4.534;2022-09-12T11:05:58;23.50;99.90
40253;DHT22;25972;51.854;4.534;2022-09-12T11:11:49;23.80;99.90
40253;DHT22;25972;51.854;4.534;2022-09-12T11:20:26;23.60;99.90
40253;DHT22;25972;51.854;4.534;2022-09-12T11:37:38;24.10;99.90
40253;DHT22;25972;51.854;4.534;2022-09-12T11:40:36;23.90;99.50
40253;DHT22;25972;51.854;4.534;2022-09-12T11:43:31;24.00;99.90
40253;DHT22;25972;51.854;4.534;2022-09-12T11:46:05;23.90;99.90
40253;DHT22;25972;51.854;4.534;2022-09-12T11:54:39;24.10;99.80
40253;DHT22;25972;51.854;4.534;2022-09-12T11:59:51;24.30;99.20
40253;DHT22;25972;51.854;4.534;2022-09-12T12:02:27;24.30;99.40
40253;DHT22;25972;51.854;4.534;2022-09-12T12:07:57;24.50;99.50
40253;DHT22;25972;51.854;4.534;2022-09-12T12:13:00;24.60;99.30
40253;DHT22;25972;51.854;4.534;2022-09-12T12:15:28;24.60;99.10
40253;DHT22;25972;51.854;4.534;2022-09-12T12:18:23;24.70;99.20
40253;DHT22;25972;51.854;4.534;2022-09-12T12:20:50;24.70;99.10
40253;DHT22;25972;51.854;4.534;2022-09-12T12:23:29;24.50;98.70
40253;DHT22;25972;51.854;4.534;2022-09-12T12:26:02;24.50;98.80
40253;DHT22;25972;51.854;4.534;2022-09-12T12:31:08;24.60;99.00
40253;DHT22;25972;51.854;4.534;2022-09-12T12:36:34;24.70;99.10
40253;DHT22;25972;51.854;4.534;2022-09-12T12:41:59;24.70;98.50
40253;DHT22;25972;51.854;4.534;2022-09-12T12:47:40;24.70;97.60
40253;DHT22;25972;51.854;4.534;2022-09-12T12:52:52;24.70;98.30
40253;DHT22;25972;51.854;4.534;2022-09-12T12:55:24;24.80;98.10
40253;DHT22;25972;51.854;4.534;2022-09-12T12:58:04;24.70;97.90
40253;DHT22;25972;51.854;4.534;2022-09-12T13:00:33;24.80;98.30
40253;DHT22;25972;51.854;4.534;2022-09-12T13:05:43;24.90;98.30
40253;DHT22;25972;51.854;4.534;2022-09-12T13:08:32;24.90;98.30
40253;DHT22;25972;51.854;4.534;2022-09-12T13:10:59;24.90;98.00
40253;DHT22;25972;51.854;4.534;2022-09-12T13:13:41;24.90;97.80
40253;DHT22;25972;51.854;4.534;2022-09-12T13:16:09;24.80;97.10
40253;DHT22;25972;51.854;4.534;2022-09-12T13:18:44;24.70;97.40
40253;DHT22;25972;51.854;4.534;2022-09-12T13:21:16;24.80;97.00
40253;DHT22;25972;51.854;4.534;2022-09-12T13:23:42;24.90;97.50
40253;DHT22;25972;51.854;4.534;2022-09-12T13:26:19;25.10;97.50
40253;DHT22;25972;51.854;4.534;2022-09-12T13:28:46;25.30;97.30
40253;DHT22;25972;51.854;4.534;2022-09-12T13:31:23;25.40;97.10
40253;DHT22;25972;51.854;4.534;2022-09-12T13:33:57;25.60;96.50
40253;DHT22;25972;51.854;4.534;2022-09-12T13:42:41;25.80;96.70
40253;DHT22;25972;51.854;4.534;2022-09-12T13:45:13;26.10;96.70
40253;DHT22;25972;51.854;4.534;2022-09-12T13:47:44;26.10;96.60
40253;DHT22;25972;51.854;4.534;2022-09-12T13:50:22;26.20;96.10
40253;DHT22;25972;51.854;4.534;2022-09-12T13:52:57;25.90;95.40
40253;DHT22;25972;51.854;4.534;2022-09-12T13:58:05;26.00;96.10
40253;DHT22;25972;51.854;4.534;2022-09-12T14:00:32;25.90;95.70
40253;DHT22;25972;51.854;4.534;2022-09-12T14:03:00;25.90;95.90
40253;DHT22;25972;51.854;4.534;2022-09-12T14:05:55;26.00;96.10
40253;DHT22;25972;51.854;4.534;2022-09-12T14:08:22;25.90;95.90
40253;DHT22;25972;51.854;4.534;2022-09-12T14:10:48;26.00;96.00
40253;DHT22;25972;51.854;4.534;2022-09-12T14:13:21;26.10;95.70
40253;DHT22;25972;51.854;4.534;2022-09-12T14:15:50;26.20;95.50
40253;DHT22;25972;51.854;4.534;2022-09-12T14:18:26;25.90;95.30
40253;DHT22;25972;51.854;4.534;2022-09-12T14:20:57;25.90;95.70
40253;DHT22;25972;51.854;4.534;2022-09-12T14:23:30;26.10;96.00
40253;DHT22;25972;51.854;4.534;2022-09-12T14:26:00;26.30;95.90
40253;DHT22;25972;51.854;4.534;2022-09-12T14:28:27;26.00;95.60
40253;DHT22;25972;51.854;4.534;2022-09-12T14:33:55;26.20;95.30
40253;DHT22;25972;51.854;4.534;2022-09-12T14:36:46;26.30;95.40
40253;DHT22;25972;51.854;4.534;2022-09-12T14:39:25;26.40;95.20
40253;DHT22;25972;51.854;4.534;2022-09-12T14:42:12;26.30;94.90
40253;DHT22;25972;51.854;4.534;2022-09-12T14:44:41;25.90;94.50
40253;DHT22;25972;51.854;4.534;2022-09-12T14:47:14;26.10;95.20
40253;DHT22;25972;51.854;4.534;2022-09-12T14:49:44;26.10;94.80
40253;DHT22;25972;51.854;4.534;2022-09-12T14:52:26;26.20;95.20
40253;DHT22;25972;51.854;4.534;2022-09-12T14:54:57;25.90;95.00
40253;DHT22;25972;51.854;4.534;2022-09-12T15:02:41;25.90;95.30
40253;DHT22;25972;51.854;4.534;2022-09-12T15:12:41;26.10;95.60
40253;DHT22;25972;51.854;4.534;2022-09-12T15:15:18;26.10;95.30
40253;DHT22;25972;51.854;4.534;2022-09-12T15:17:44;25.90;94.70
40253;DHT22;25972;51.854;4.534;2022-09-12T15:20:11;25.80;95.20
40253;DHT22;25972;51.854;4.534;2022-09-12T15:22:38;25.70;95.20
40253;DHT22;25972;51.854;4.534;2022-09-12T15:25:05;25.70;95.20
40253;DHT22;25972;51.854;4.534;2022-09-12T15:27:31;25.50;95.10
40253;DHT22;25972;51.854;4.534;2022-09-12T15:29:57;25.40;95.30
40253;DHT22;25972;51.854;4.534;2022-09-12T15:32:25;25.20;95.30
40253;DHT22;25972;51.854;4.534;2022-09-12T15:34:52;25.30;95.50
40253;DHT22;25972;51.854;4.534;2022-09-12T15:37:22;25.10;95.40
40253;DHT22;25972;51.854;4.534;2022-09-12T15:39:49;25.10;95.50
40253;DHT22;25972;51.854;4.534;2022-09-12T15:42:17;25.10;95.60
40253;DHT22;25972;51.854;4.534;2022-09-12T15:44:44;25.10;95.90
40253;DHT22;25972;51.854;4.534;2022-09-12T15:47:13;25.10;96.00
40253;DHT22;25972;51.854;4.534;2022-09-12T15:49:39;25.10;95.80
40253;DHT22;25972;51.854;4.534;2022-09-12T15:52:06;25.00;95.90
40253;DHT22;25972;51.854;4.534;2022-09-12T15:54:34;24.90;96.00
40253;DHT22;25972;51.854;4.534;2022-09-12T15:57:00;24.80;96.10
40253;DHT22;25972;51.854;4.534;2022-09-12T15:59:26;24.80;96.10
40253;DHT22;25972;51.854;4.534;2022-09-12T16:01:52;24.60;96.20
40253;DHT22;25972;51.854;4.534;2022-09-12T16:04:23;24.60;96.40
40253;DHT22;25972;51.854;4.534;2022-09-12T16:06:49;24.50;96.30
40253;DHT22;25972;51.854;4.534;2022-09-12T16:09:15;24.60;96.50
40253;DHT22;25972;51.854;4.534;2022-09-12T16:11:41;24.60;96.80
40253;DHT22;25972;51.854;4.534;2022-09-12T16:14:07;24.60;96.80
40253;DHT22;25972;51.854;4.534;2022-09-12T16:16:33;24.70;96.90
40253;DHT22;25972;51.854;4.534;2022-09-12T16:19:00;24.70;97.00
40253;DHT22;25972;51.854;4.534;2022-09-12T16:21:25;24.70;97.20
40253;DHT22;25972;51.854;4.534;2022-09-12T16:23:51;24.70;97.20
40253;DHT22;25972;51.854;4.534;2022-09-12T16:26:17;24.70;97.20
40253;DHT22;25972;51.854;4.534;2022-09-12T16:28:43;24.60;97.00
40253;DHT22;25972;51.854;4.534;2022-09-12T16:31:11;24.50;97.10
40253;DHT22;25972;51.854;4.534;2022-09-12T16:33:38;24.50;97.10
40253;DHT22;25972;51.854;4.534;2022-09-12T16:36:08;24.50;97.20
40253;DHT22;25972;51.854;4.534;2022-09-12T16:38:42;24.50;97.40
40253;DHT22;25972;51.854;4.534;2022-09-12T16:41:08;24.40;97.40
40253;DHT22;25972;51.854;4.534;2022-09-12T16:43:34;24.30;97.50
40253;DHT22;25972;51.854;4.534;2022-09-12T16:46:11;24.30;97.90
40253;DHT22;25972;51.854;4.534;2022-09-12T16:48:41;24.20;97.90
40253;DHT22;25972;51.854;4.534;2022-09-12T16:51:09;24.10;98.20
40253;DHT22;25972;51.854;4.534;2022-09-12T16:53:37;24.00;98.30
40253;DHT22;25972;51.854;4.534;2022-09-12T16:56:03;23.90;98.40
40253;DHT22;25972;51.854;4.534;2022-09-12T16:58:34;23.90;98.50
40253;DHT22;25972;51.854;4.534;2022-09-12T17:01:13;23.80;98.70
40253;DHT22;25972;51.854;4.534;2022-09-12T17:03:39;23.80;99.00
40253;DHT22;25972;51.854;4.534;2022-09-12T17:06:10;23.70;99.10
40253;DHT22;25972;51.854;4.534;2022-09-12T17:08:38;23.60;99.60
40253;DHT22;25972;51.854;4.534;2022-09-12T17:11:10;23.60;99.40
40253;DHT22;25972;51.854;4.534;2022-09-12T17:13:37;23.50;99.50
40253;DHT22;25972;51.854;4.534;2022-09-12T17:16:10;23.50;99.70
40253;DHT22;25972;51.854;4.534;2022-09-12T17:18:37;23.50;99.90
40253;DHT22;25972;51.854;4.534;2022-09-12T17:21:03;23.40;99.90
40253;DHT22;25972;51.854;4.534;2022-09-12T17:23:29;23.40;99.90
40253;DHT22;25972;51.854;4.534;2022-09-12T17:25:54;23.40;99.90
40253;DHT22;25972;51.854;4.534;2022-09-12T17:28:20;23.40;99.90
40253;DHT22;25972;51.854;4.534;2022-09-12T17:30:52;23.40;99.90
40253;DHT22;25972;51.854;4.534;2022-09-12T17:33:18;23.30;99.90
40253;DHT22;25972;51.854;4.534;2022-09-12T17:35:44;23.30;99.90
40253;DHT22;25972;51.854;4.534;2022-09-12T17:38:10;23.30;99.90
40253;DHT22;25972;51.854;4.534;2022-09-12T17:40:36;23.20;99.90
40253;DHT22;25972;51.854;4.534;2022-09-12T17:43:02;23.20;99.90
40253;DHT22;25972;51.854;4.534;2022-09-12T17:45:28;23.10;99.90
40253;DHT22;25972;51.854;4.534;2022-09-12T17:47:54;23.10;99.90
40253;DHT22;25972;51.854;4.534;2022-09-12T17:50:20;23.00;99.90
40253;DHT22;25972;51.854;4.534;2022-09-12T17:52:46;22.90;99.90
40253;DHT22;25972;51.854;4.534;2022-09-12T17:55:12;22.90;99.90
40253;DHT22;25972;51.854;4.534;2022-09-12T17:57:40;22.80;99.90
40253;DHT22;25972;51.854;4.534;2022-09-12T18:00:07;22.80;99.90
40253;DHT22;25972;51.854;4.534;2022-09-12T18:02:37;22.70;99.90
40253;DHT22;25972;51.854;4.534;2022-09-12T18:05:03;22.70;99.90
40253;DHT22;25972;51.854;4.534;2022-09-12T18:07:30;22.60;99.90
40253;DHT22;25972;51.854;4.534;2022-09-12T18:09:57;22.50;99.90
40253;DHT22;25972;51.854;4.534;2022-09-12T18:12:23;22.40;99.90
40253;DHT22;25972;51.854;4.534;2022-09-12T18:14:49;22.40;99.90
40253;DHT22;25972;51.854;4.534;2022-09-12T18:17:15;22.30;99.90
40253;DHT22;25972;51.854;4.534;2022-09-12T18:19:41;22.20;99.90
40253;DHT22;25972;51.854;4.534;2022-09-12T18:22:08;22.20;99.90
40253;DHT22;25972;51.854;4.534;2022-09-12T18:24:34;22.10;99.90
40253;DHT22;25972;51.854;4.534;2022-09-12T18:27:00;22.10;99.90
40253;DHT22;25972;51.854;4.534;2022-09-12T18:29:27;22.00;99.90
40253;DHT22;25972;51.854;4.534;2022-09-12T18:31:54;21.90;99.90
40253;DHT22;25972;51.854;4.534;2022-09-12T18:34:20;21.80;99.90